sensor_id;sensor_type;location;lat;lon;timestamp;P1;durP1;ratioP1;P2;durP2;ratioP2
34741;SDS011;20968;42.696;23.360;2023-03-20T00:01:56;38.08;;;17.67;;
34741;SDS011;20968;42.696;23.360;2023-03-20T00:04:22;37.75;;;18.15;;
34741;SDS011;20968;42.696;23.360;2023-03-20T00:06:47;37.63;;;17.77;;
34741;SDS011;20968;42.696;23.360;2023-03-20T00:09:12;37.85;;;18.50;;
34741;SDS011;20968;42.696;23.360;2023-03-20T00:11:56;36.33;;;18.10;;
34741;SDS011;20968;42.696;23.360;2023-03-20T00:14:22;43.28;;;18.45;;
34741;SDS011;20968;42.696;23.360;2023-03-20T00:16:49;37.97;;;17.05;;
34741;SDS011;20968;42.696;23.360;2023-03-20T00:19:25;39.85;;;19.17;;
34741;SDS011;20968;42.696;23.360;2023-03-20T00:21:56;43.80;;;18.08;;
34741;SDS011;20968;42.696;23.360;2023-03-20T00:24:22;39.55;;;18.95;;
34741;SDS011;20968;42.696;23.360;2023-03-20T00:26:48;42.28;;;18.88;;
34741;SDS011;20968;42.696;23.360;2023-03-20T00:32:09;42.40;;;20.40;;
34741;SDS011;20968;42.696;23.360;2023-03-20T00:34:39;38.88;;;18.30;;
34741;SDS011;20968;42.696;23.360;2023-03-20T00:37:05;39.47;;;20.77;;
34741;SDS011;20968;42.696;23.360;2023-03-20T00:39:31;41.55;;;19.95;;
34741;SDS011;20968;42.696;23.360;2023-03-20T00:41:57;42.78;;;18.95;;
34741;SDS011;20968;42.696;23.360;2023-03-20T00:47:03;39.08;;;20.27;;
34741;SDS011;20968;42.696;23.360;2023-03-20T00:49:37;41.90;;;19.75;;
34741;SDS011;20968;42.696;23.360;2023-03-20T00:52:03;45.53;;;19.00;;
34741;SDS011;20968;42.696;23.360;2023-03-20T00:54:29;45.95;;;19.42;;
34741;SDS011;20968;42.696;23.360;2023-03-20T00:57:06;46.72;;;20.90;;
34741;SDS011;20968;42.696;23.360;2023-03-20T00:59:39;40.85;;;19.83;;
34741;SDS011;20968;42.696;23.360;2023-03-20T01:04:38;46.53;;;21.13;;
34741;SDS011;20968;42.696;23.360;2023-03-20T01:07:09;56.17;;;24.00;;
34741;SDS011;20968;42.696;23.360;2023-03-20T01:09:37;47.80;;;21.42;;
34741;SDS011;20968;42.696;23.360;2023-03-20T01:12:03;55.97;;;23.23;;
34741;SDS011;20968;42.696;23.360;2023-03-20T01:14:29;53.42;;;22.10;;
34741;SDS011;20968;42.696;23.360;2023-03-20T01:16:55;50.92;;;22.25;;
34741;SDS011;20968;42.696;23.360;2023-03-20T01:19:20;75.43;;;31.98;;
34741;SDS011;20968;42.696;23.360;2023-03-20T01:21:46;80.75;;;31.40;;
34741;SDS011;20968;42.696;23.360;2023-03-20T01:24:11;69.18;;;29.50;;
34741;SDS011;20968;42.696;23.360;2023-03-20T01:26:38;72.78;;;29.77;;
34741;SDS011;20968;42.696;23.360;2023-03-20T01:29:18;64.50;;;29.88;;
34741;SDS011;20968;42.696;23.360;2023-03-20T01:31:44;68.50;;;29.35;;
34741;SDS011;20968;42.696;23.360;2023-03-20T01:34:10;63.90;;;25.65;;
34741;SDS011;20968;42.696;23.360;2023-03-20T01:36:36;63.38;;;26.45;;
34741;SDS011;20968;42.696;23.360;2023-03-20T01:39:02;62.63;;;26.25;;
34741;SDS011;20968;42.696;23.360;2023-03-20T01:41:28;55.85;;;25.40;;
34741;SDS011;20968;42.696;23.360;2023-03-20T01:43:54;65.88;;;27.60;;
34741;SDS011;20968;42.696;23.360;2023-03-20T01:46:29;81.38;;;33.17;;
34741;SDS011;20968;42.696;23.360;2023-03-20T01:50:10;66.72;;;29.15;;
34741;SDS011;20968;42.696;23.360;2023-03-20T01:51:53;56.95;;;26.52;;
34741;SDS011;20968;42.696;23.360;2023-03-20T01:54:22;67.78;;;28.25;;
34741;SDS011;20968;42.696;23.360;2023-03-20T01:59:55;56.72;;;23.63;;
34741;SDS011;20968;42.696;23.360;2023-03-20T02:02:34;60.53;;;23.83;;
34741;SDS011;20968;42.696;23.360;2023-03-20T02:05:03;50.60;;;23.58;;
34741;SDS011;20968;42.696;23.360;2023-03-20T02:07:33;49.47;;;22.98;;
34741;SDS011;20968;42.696;23.360;2023-03-20T02:10:00;53.17;;;23.70;;
34741;SDS011;20968;42.696;23.360;2023-03-20T02:12:29;59.17;;;25.45;;
34741;SDS011;20968;42.696;23.360;2023-03-20T02:14:55;55.58;;;25.00;;
34741;SDS011;20968;42.696;23.360;2023-03-20T02:17:22;54.00;;;25.90;;
34741;SDS011;20968;42.696;23.360;2023-03-20T02:25:23;73.18;;;29.80;;
34741;SDS011;20968;42.696;23.360;2023-03-20T02:33:44;74.88;;;32.85;;
34741;SDS011;20968;42.696;23.360;2023-03-20T02:39:01;68.07;;;28.10;;
34741;SDS011;20968;42.696;23.360;2023-03-20T02:44:35;71.07;;;29.80;;
34741;SDS011;20968;42.696;23.360;2023-03-20T02:47:12;65.68;;;28.85;;
34741;SDS011;20968;42.696;23.360;2023-03-20T02:49:55;69.68;;;29.73;;
34741;SDS011;20968;42.696;23.360;2023-03-20T02:55:32;51.05;;;23.35;;
34741;SDS011;20968;42.696;23.360;2023-03-20T03:00:53;45.72;;;22.55;;
34741;SDS011;20968;42.696;23.360;2023-03-20T03:05:59;47.05;;;20.95;;
34741;SDS011;20968;42.696;23.360;2023-03-20T03:08:32;46.63;;;21.50;;
34741;SDS011;20968;42.696;23.360;2023-03-20T03:11:06;46.65;;;21.10;;
34741;SDS011;20968;42.696;23.360;2023-03-20T03:13:37;49.42;;;21.58;;
34741;SDS011;20968;42.696;23.360;2023-03-20T03:16:11;52.65;;;21.17;;
34741;SDS011;20968;42.696;23.360;2023-03-20T03:18:42;50.15;;;20.75;;
34741;SDS011;20968;42.696;23.360;2023-03-20T03:21:09;49.40;;;20.45;;
34741;SDS011;20968;42.696;23.360;2023-03-20T03:23:41;47.05;;;21.25;;
34741;SDS011;20968;42.696;23.360;2023-03-20T03:26:26;48.03;;;21.52;;
34741;SDS011;20968;42.696;23.360;2023-03-20T03:29:03;44.65;;;21.92;;
34741;SDS011;20968;42.696;23.360;2023-03-20T03:31:38;44.28;;;21.40;;
34741;SDS011;20968;42.696;23.360;2023-03-20T03:34:04;55.33;;;22.25;;
34741;SDS011;20968;42.696;23.360;2023-03-20T03:36:47;53.65;;;22.27;;
34741;SDS011;20968;42.696;23.360;2023-03-20T03:47:36;53.28;;;23.58;;
34741;SDS011;20968;42.696;23.360;2023-03-20T03:50:09;49.17;;;21.48;;
34741;SDS011;20968;42.696;23.360;2023-03-20T03:52:41;40.90;;;18.50;;
34741;SDS011;20968;42.696;23.360;2023-03-20T03:55:18;38.83;;;17.17;;
34741;SDS011;20968;42.696;23.360;2023-03-20T03:57:58;41.00;;;17.58;;
34741;SDS011;20968;42.696;23.360;2023-03-20T04:00:28;30.27;;;15.63;;
34741;SDS011;20968;42.696;23.360;2023-03-20T04:02:57;35.47;;;16.27;;
34741;SDS011;20968;42.696;23.360;2023-03-20T04:05:29;33.17;;;15.88;;
34741;SDS011;20968;42.696;23.360;2023-03-20T04:07:57;34.08;;;17.65;;
34741;SDS011;20968;42.696;23.360;2023-03-20T04:10:25;35.30;;;17.45;;
34741;SDS011;20968;42.696;23.360;2023-03-20T04:12:50;39.72;;;17.02;;
34741;SDS011;20968;42.696;23.360;2023-03-20T04:15:16;35.47;;;17.60;;
34741;SDS011;20968;42.696;23.360;2023-03-20T04:17:42;36.40;;;20.33;;
34741;SDS011;20968;42.696;23.360;2023-03-20T04:20:08;45.92;;;20.50;;
34741;SDS011;20968;42.696;23.360;2023-03-20T04:22:35;48.42;;;20.85;;
34741;SDS011;20968;42.696;23.360;2023-03-20T04:25:01;53.28;;;21.52;;
34741;SDS011;20968;42.696;23.360;2023-03-20T04:27:28;42.75;;;20.95;;
34741;SDS011;20968;42.696;23.360;2023-03-20T04:29:53;37.08;;;17.17;;
34741;SDS011;20968;42.696;23.360;2023-03-20T04:32:19;40.33;;;18.05;;
34741;SDS011;20968;42.696;23.360;2023-03-20T04:34:45;38.95;;;18.45;;
34741;SDS011;20968;42.696;23.360;2023-03-20T04:37:11;41.88;;;18.65;;
34741;SDS011;20968;42.696;23.360;2023-03-20T04:39:36;47.38;;;20.98;;
34741;SDS011;20968;42.696;23.360;2023-03-20T04:42:02;46.80;;;20.02;;
34741;SDS011;20968;42.696;23.360;2023-03-20T04:44:29;70.05;;;27.75;;
34741;SDS011;20968;42.696;23.360;2023-03-20T04:46:55;74.40;;;31.33;;
34741;SDS011;20968;42.696;23.360;2023-03-20T04:49:20;64.95;;;30.92;;
34741;SDS011;20968;42.696;23.360;2023-03-20T04:51:45;79.05;;;34.92;;
34741;SDS011;20968;42.696;23.360;2023-03-20T04:54:11;98.93;;;40.30;;
34741;SDS011;20968;42.696;23.360;2023-03-20T04:56:36;102.32;;;43.75;;
34741;SDS011;20968;42.696;23.360;2023-03-20T04:59:02;91.72;;;42.92;;
34741;SDS011;20968;42.696;23.360;2023-03-20T05:01:27;90.75;;;38.33;;
34741;SDS011;20968;42.696;23.360;2023-03-20T05:03:53;77.47;;;34.13;;
34741;SDS011;20968;42.696;23.360;2023-03-20T05:06:24;74.07;;;32.05;;
34741;SDS011;20968;42.696;23.360;2023-03-20T05:08:53;64.30;;;28.50;;
34741;SDS011;20968;42.696;23.360;2023-03-20T05:11:18;53.55;;;27.05;;
34741;SDS011;20968;42.696;23.360;2023-03-20T05:13:44;53.13;;;24.63;;
34741;SDS011;20968;42.696;23.360;2023-03-20T05:16:09;51.78;;;25.70;;
34741;SDS011;20968;42.696;23.360;2023-03-20T05:18:35;61.58;;;26.25;;
34741;SDS011;20968;42.696;23.360;2023-03-20T05:21:00;52.97;;;22.60;;
34741;SDS011;20968;42.696;23.360;2023-03-20T05:23:26;51.58;;;22.77;;
34741;SDS011;20968;42.696;23.360;2023-03-20T05:25:52;27.45;;;13.63;;
34741;SDS011;20968;42.696;23.360;2023-03-20T05:28:17;42.88;;;17.38;;
34741;SDS011;20968;42.696;23.360;2023-03-20T05:30:43;34.15;;;16.13;;
34741;SDS011;20968;42.696;23.360;2023-03-20T05:33:08;48.22;;;22.38;;
34741;SDS011;20968;42.696;23.360;2023-03-20T05:35:34;50.70;;;22.50;;
34741;SDS011;20968;42.696;23.360;2023-03-20T05:37:59;39.53;;;17.45;;
34741;SDS011;20968;42.696;23.360;2023-03-20T05:40:24;41.67;;;18.73;;
34741;SDS011;20968;42.696;23.360;2023-03-20T05:42:50;39.92;;;17.08;;
34741;SDS011;20968;42.696;23.360;2023-03-20T05:45:16;47.65;;;20.55;;
34741;SDS011;20968;42.696;23.360;2023-03-20T05:47:46;61.20;;;24.58;;
34741;SDS011;20968;42.696;23.360;2023-03-20T05:50:11;66.50;;;25.88;;
34741;SDS011;20968;42.696;23.360;2023-03-20T05:52:37;59.97;;;25.73;;
34741;SDS011;20968;42.696;23.360;2023-03-20T05:55:02;66.95;;;30.63;;
34741;SDS011;20968;42.696;23.360;2023-03-20T05:57:28;63.17;;;29.23;;
34741;SDS011;20968;42.696;23.360;2023-03-20T05:59:54;60.38;;;28.48;;
34741;SDS011;20968;42.696;23.360;2023-03-20T06:02:19;52.38;;;24.75;;
34741;SDS011;20968;42.696;23.360;2023-03-20T06:04:48;50.33;;;24.17;;
34741;SDS011;20968;42.696;23.360;2023-03-20T06:07:14;52.85;;;21.58;;
34741;SDS011;20968;42.696;23.360;2023-03-20T06:09:41;43.88;;;19.52;;
34741;SDS011;20968;42.696;23.360;2023-03-20T06:12:07;41.30;;;21.38;;
34741;SDS011;20968;42.696;23.360;2023-03-20T06:14:35;40.67;;;19.10;;
34741;SDS011;20968;42.696;23.360;2023-03-20T06:17:01;39.75;;;19.95;;
34741;SDS011;20968;42.696;23.360;2023-03-20T06:19:26;38.78;;;18.40;;
34741;SDS011;20968;42.696;23.360;2023-03-20T06:21:51;46.53;;;17.45;;
34741;SDS011;20968;42.696;23.360;2023-03-20T06:24:17;36.78;;;16.17;;
34741;SDS011;20968;42.696;23.360;2023-03-20T06:26:45;29.48;;;15.50;;
34741;SDS011;20968;42.696;23.360;2023-03-20T06:29:10;28.65;;;14.25;;
34741;SDS011;20968;42.696;23.360;2023-03-20T06:31:36;24.70;;;12.48;;
34741;SDS011;20968;42.696;23.360;2023-03-20T06:34:01;20.67;;;10.13;;
34741;SDS011;20968;42.696;23.360;2023-03-20T06:36:27;19.17;;;11.32;;
34741;SDS011;20968;42.696;23.360;2023-03-20T06:38:54;26.55;;;11.13;;
34741;SDS011;20968;42.696;23.360;2023-03-20T06:41:22;26.17;;;11.13;;
34741;SDS011;20968;42.696;23.360;2023-03-20T06:43:47;26.35;;;11.55;;
34741;SDS011;20968;42.696;23.360;2023-03-20T06:46:13;22.50;;;11.43;;
34741;SDS011;20968;42.696;23.360;2023-03-20T06:48:38;30.52;;;11.48;;
34741;SDS011;20968;42.696;23.360;2023-03-20T06:51:04;28.88;;;12.25;;
34741;SDS011;20968;42.696;23.360;2023-03-20T06:53:30;24.85;;;12.63;;
34741;SDS011;20968;42.696;23.360;2023-03-20T06:55:55;22.55;;;11.50;;
34741;SDS011;20968;42.696;23.360;2023-03-20T06:58:21;30.05;;;12.30;;
34741;SDS011;20968;42.696;23.360;2023-03-20T07:00:46;37.95;;;14.38;;
34741;SDS011;20968;42.696;23.360;2023-03-20T07:03:12;24.25;;;12.35;;
34741;SDS011;20968;42.696;23.360;2023-03-20T07:05:37;31.20;;;14.73;;
34741;SDS011;20968;42.696;23.360;2023-03-20T07:08:04;26.67;;;14.55;;
34741;SDS011;20968;42.696;23.360;2023-03-20T07:10:31;33.65;;;15.18;;
34741;SDS011;20968;42.696;23.360;2023-03-20T07:12:56;38.90;;;18.75;;
34741;SDS011;20968;42.696;23.360;2023-03-20T07:15:22;40.83;;;17.17;;
34741;SDS011;20968;42.696;23.360;2023-03-20T07:17:48;33.50;;;16.52;;
34741;SDS011;20968;42.696;23.360;2023-03-20T07:20:14;43.72;;;18.67;;
34741;SDS011;20968;42.696;23.360;2023-03-20T07:22:39;38.47;;;18.08;;
34741;SDS011;20968;42.696;23.360;2023-03-20T07:25:09;42.08;;;19.95;;
34741;SDS011;20968;42.696;23.360;2023-03-20T07:27:56;37.38;;;19.67;;
34741;SDS011;20968;42.696;23.360;2023-03-20T07:30:24;47.10;;;21.25;;
34741;SDS011;20968;42.696;23.360;2023-03-20T07:32:49;43.67;;;19.08;;
34741;SDS011;20968;42.696;23.360;2023-03-20T07:35:15;41.38;;;20.33;;
34741;SDS011;20968;42.696;23.360;2023-03-20T07:37:41;41.20;;;19.38;;
34741;SDS011;20968;42.696;23.360;2023-03-20T07:40:09;41.05;;;19.75;;
34741;SDS011;20968;42.696;23.360;2023-03-20T07:42:35;38.22;;;18.27;;
34741;SDS011;20968;42.696;23.360;2023-03-20T07:45:01;35.30;;;18.95;;
34741;SDS011;20968;42.696;23.360;2023-03-20T07:47:26;37.05;;;18.20;;
34741;SDS011;20968;42.696;23.360;2023-03-20T07:49:52;42.17;;;18.13;;
34741;SDS011;20968;42.696;23.360;2023-03-20T07:52:17;31.25;;;15.30;;
34741;SDS011;20968;42.696;23.360;2023-03-20T07:54:42;34.25;;;16.42;;
34741;SDS011;20968;42.696;23.360;2023-03-20T07:57:08;29.80;;;15.95;;
34741;SDS011;20968;42.696;23.360;2023-03-20T07:59:33;29.23;;;13.80;;
34741;SDS011;20968;42.696;23.360;2023-03-20T08:01:59;29.60;;;14.73;;
34741;SDS011;20968;42.696;23.360;2023-03-20T08:04:24;17.10;;;8.80;;
34741;SDS011;20968;42.696;23.360;2023-03-20T08:06:50;28.77;;;13.30;;
34741;SDS011;20968;42.696;23.360;2023-03-20T08:09:16;22.25;;;12.70;;
34741;SDS011;20968;42.696;23.360;2023-03-20T08:11:42;25.52;;;12.43;;
34741;SDS011;20968;42.696;23.360;2023-03-20T08:14:07;21.70;;;11.50;;
34741;SDS011;20968;42.696;23.360;2023-03-20T08:16:33;29.02;;;10.98;;
34741;SDS011;20968;42.696;23.360;2023-03-20T08:18:58;21.88;;;10.80;;
34741;SDS011;20968;42.696;23.360;2023-03-20T08:21:29;18.88;;;9.63;;
34741;SDS011;20968;42.696;23.360;2023-03-20T08:23:56;18.33;;;9.90;;
34741;SDS011;20968;42.696;23.360;2023-03-20T08:26:22;17.30;;;9.65;;
34741;SDS011;20968;42.696;23.360;2023-03-20T08:28:48;20.17;;;9.32;;
34741;SDS011;20968;42.696;23.360;2023-03-20T08:31:15;17.90;;;9.75;;
34741;SDS011;20968;42.696;23.360;2023-03-20T08:33:42;15.88;;;8.88;;
34741;SDS011;20968;42.696;23.360;2023-03-20T08:36:11;21.73;;;11.73;;
34741;SDS011;20968;42.696;23.360;2023-03-20T08:38:39;17.35;;;7.90;;
34741;SDS011;20968;42.696;23.360;2023-03-20T08:41:25;17.38;;;8.68;;
34741;SDS011;20968;42.696;23.360;2023-03-20T08:44:02;19.60;;;9.35;;
34741;SDS011;20968;42.696;23.360;2023-03-20T08:46:29;18.48;;;9.18;;
34741;SDS011;20968;42.696;23.360;2023-03-20T08:48:54;17.50;;;9.75;;
34741;SDS011;20968;42.696;23.360;2023-03-20T08:51:20;15.93;;;8.88;;
34741;SDS011;20968;42.696;23.360;2023-03-20T08:53:46;21.48;;;9.10;;
34741;SDS011;20968;42.696;23.360;2023-03-20T08:56:11;19.48;;;10.88;;
34741;SDS011;20968;42.696;23.360;2023-03-20T08:58:37;22.40;;;10.40;;
34741;SDS011;20968;42.696;23.360;2023-03-20T09:01:06;14.43;;;8.55;;
34741;SDS011;20968;42.696;23.360;2023-03-20T09:03:33;23.25;;;8.93;;
34741;SDS011;20968;42.696;23.360;2023-03-20T09:05:59;16.98;;;10.27;;
34741;SDS011;20968;42.696;23.360;2023-03-20T09:08:27;14.38;;;7.57;;
34741;SDS011;20968;42.696;23.360;2023-03-20T09:10:53;14.68;;;7.50;;
34741;SDS011;20968;42.696;23.360;2023-03-20T09:13:18;15.10;;;7.20;;
34741;SDS011;20968;42.696;23.360;2023-03-20T09:15:45;18.42;;;7.57;;
34741;SDS011;20968;42.696;23.360;2023-03-20T09:18:10;13.18;;;7.15;;
34741;SDS011;20968;42.696;23.360;2023-03-20T09:20:36;19.13;;;7.18;;
34741;SDS011;20968;42.696;23.360;2023-03-20T09:23:01;18.42;;;7.40;;
34741;SDS011;20968;42.696;23.360;2023-03-20T09:25:27;16.67;;;7.78;;
34741;SDS011;20968;42.696;23.360;2023-03-20T09:27:52;16.65;;;8.07;;
34741;SDS011;20968;42.696;23.360;2023-03-20T09:33:43;12.77;;;7.50;;
34741;SDS011;20968;42.696;23.360;2023-03-20T09:36:08;13.73;;;7.05;;
34741;SDS011;20968;42.696;23.360;2023-03-20T09:38:35;13.75;;;7.07;;
34741;SDS011;20968;42.696;23.360;2023-03-20T09:44:12;12.25;;;7.32;;
34741;SDS011;20968;42.696;23.360;2023-03-20T09:52:31;14.25;;;8.25;;
34741;SDS011;20968;42.696;23.360;2023-03-20T09:55:01;15.52;;;7.45;;
34741;SDS011;20968;42.696;23.360;2023-03-20T09:57:36;14.00;;;7.18;;
34741;SDS011;20968;42.696;23.360;2023-03-20T10:00:06;12.40;;;6.65;;
34741;SDS011;20968;42.696;23.360;2023-03-20T10:07:55;12.95;;;6.82;;
34741;SDS011;20968;42.696;23.360;2023-03-20T10:10:26;20.65;;;7.43;;
34741;SDS011;20968;42.696;23.360;2023-03-20T10:13:08;17.97;;;8.53;;
34741;SDS011;20968;42.696;23.360;2023-03-20T10:15:53;13.02;;;7.75;;
34741;SDS011;20968;42.696;23.360;2023-03-20T10:18:48;14.90;;;8.23;;
34741;SDS011;20968;42.696;23.360;2023-03-20T10:21:28;15.65;;;8.10;;
34741;SDS011;20968;42.696;23.360;2023-03-20T10:24:13;23.23;;;8.18;;
34741;SDS011;20968;42.696;23.360;2023-03-20T10:26:45;16.23;;;7.88;;
34741;SDS011;20968;42.696;23.360;2023-03-20T10:32:07;19.08;;;8.20;;
34741;SDS011;20968;42.696;23.360;2023-03-20T10:42:21;11.82;;;7.22;;
34741;SDS011;20968;42.696;23.360;2023-03-20T10:44:57;13.63;;;7.47;;
34741;SDS011;20968;42.696;23.360;2023-03-20T10:53:59;16.80;;;6.93;;
34741;SDS011;20968;42.696;23.360;2023-03-20T10:56:41;15.63;;;7.50;;
34741;SDS011;20968;42.696;23.360;2023-03-20T10:59:17;13.70;;;7.20;;
34741;SDS011;20968;42.696;23.360;2023-03-20T11:01:47;15.50;;;7.30;;
34741;SDS011;20968;42.696;23.360;2023-03-20T11:04:13;16.35;;;7.60;;
34741;SDS011;20968;42.696;23.360;2023-03-20T11:06:59;16.90;;;7.53;;
34741;SDS011;20968;42.696;23.360;2023-03-20T11:09:26;14.10;;;7.55;;
34741;SDS011;20968;42.696;23.360;2023-03-20T11:11:57;12.30;;;7.03;;
34741;SDS011;20968;42.696;23.360;2023-03-20T11:14:26;15.88;;;7.95;;
34741;SDS011;20968;42.696;23.360;2023-03-20T11:17:00;19.02;;;8.35;;
34741;SDS011;20968;42.696;23.360;2023-03-20T11:19:28;11.23;;;7.20;;
34741;SDS011;20968;42.696;23.360;2023-03-20T11:22:06;13.25;;;7.25;;
34741;SDS011;20968;42.696;23.360;2023-03-20T11:24:50;21.58;;;8.35;;
34741;SDS011;20968;42.696;23.360;2023-03-20T11:27:23;24.30;;;7.97;;
34741;SDS011;20968;42.696;23.360;2023-03-20T11:29:50;13.60;;;6.68;;
34741;SDS011;20968;42.696;23.360;2023-03-20T11:32:39;13.52;;;6.70;;
34741;SDS011;20968;42.696;23.360;2023-03-20T11:35:10;13.57;;;7.13;;
34741;SDS011;20968;42.696;23.360;2023-03-20T11:37:51;11.60;;;6.30;;
34741;SDS011;20968;42.696;23.360;2023-03-20T11:40:32;15.55;;;6.30;;
34741;SDS011;20968;42.696;23.360;2023-03-20T11:45:32;14.20;;;7.30;;
34741;SDS011;20968;42.696;23.360;2023-03-20T11:47:59;14.65;;;5.72;;
34741;SDS011;20968;42.696;23.360;2023-03-20T11:50:29;10.02;;;6.18;;
34741;SDS011;20968;42.696;23.360;2023-03-20T11:52:58;14.23;;;5.82;;
34741;SDS011;20968;42.696;23.360;2023-03-20T11:55:43;18.42;;;6.20;;
34741;SDS011;20968;42.696;23.360;2023-03-20T11:58:22;12.45;;;4.53;;
34741;SDS011;20968;42.696;23.360;2023-03-20T12:00:49;12.40;;;5.00;;
34741;SDS011;20968;42.696;23.360;2023-03-20T12:06:14;10.32;;;4.68;;
34741;SDS011;20968;42.696;23.360;2023-03-20T12:08:45;12.20;;;4.90;;
34741;SDS011;20968;42.696;23.360;2023-03-20T12:14:07;8.15;;;4.00;;
34741;SDS011;20968;42.696;23.360;2023-03-20T12:16:41;8.00;;;3.72;;
34741;SDS011;20968;42.696;23.360;2023-03-20T12:19:12;9.43;;;3.88;;
34741;SDS011;20968;42.696;23.360;2023-03-20T12:21:44;14.05;;;4.30;;
34741;SDS011;20968;42.696;23.360;2023-03-20T12:27:18;5.43;;;3.50;;
34741;SDS011;20968;42.696;23.360;2023-03-20T12:34:58;9.02;;;3.25;;
34741;SDS011;20968;42.696;23.360;2023-03-20T12:37:30;4.43;;;2.25;;
34741;SDS011;20968;42.696;23.360;2023-03-20T12:39:57;3.92;;;2.55;;
34741;SDS011;20968;42.696;23.360;2023-03-20T12:56:04;4.20;;;2.53;;
34741;SDS011;20968;42.696;23.360;2023-03-20T12:58:58;3.35;;;2.13;;
34741;SDS011;20968;42.696;23.360;2023-03-20T13:07:01;8.77;;;2.17;;
34741;SDS011;20968;42.696;23.360;2023-03-20T13:09:45;3.42;;;1.98;;
34741;SDS011;20968;42.696;23.360;2023-03-20T13:12:57;8.00;;;1.70;;
34741;SDS011;20968;42.696;23.360;2023-03-20T13:21:18;2.40;;;1.80;;
34741;SDS011;20968;42.696;23.360;2023-03-20T13:24:16;6.15;;;1.65;;
34741;SDS011;20968;42.696;23.360;2023-03-20T13:26:57;4.05;;;2.00;;
34741;SDS011;20968;42.696;23.360;2023-03-20T13:32:12;2.42;;;1.90;;
34741;SDS011;20968;42.696;23.360;2023-03-20T13:37:40;3.92;;;2.08;;
34741;SDS011;20968;42.696;23.360;2023-03-20T13:40:33;8.82;;;2.20;;
34741;SDS011;20968;42.696;23.360;2023-03-20T13:43:07;5.00;;;2.58;;
34741;SDS011;20968;42.696;23.360;2023-03-20T13:45:46;6.05;;;1.70;;
34741;SDS011;20968;42.696;23.360;2023-03-20T13:48:23;7.05;;;1.77;;
34741;SDS011;20968;42.696;23.360;2023-03-20T13:57:03;5.32;;;2.40;;
34741;SDS011;20968;42.696;23.360;2023-03-20T14:04:31;4.50;;;1.50;;
34741;SDS011;20968;42.696;23.360;2023-03-20T14:07:24;3.05;;;1.52;;
34741;SDS011;20968;42.696;23.360;2023-03-20T14:09:55;3.72;;;1.92;;
34741;SDS011;20968;42.696;23.360;2023-03-20T14:12:24;3.17;;;1.80;;
34741;SDS011;20968;42.696;23.360;2023-03-20T14:14:52;4.93;;;1.80;;
34741;SDS011;20968;42.696;23.360;2023-03-20T14:17:23;5.43;;;1.80;;
34741;SDS011;20968;42.696;23.360;2023-03-20T14:19:55;3.90;;;2.05;;
34741;SDS011;20968;42.696;23.360;2023-03-20T14:22:22;5.65;;;2.20;;
34741;SDS011;20968;42.696;23.360;2023-03-20T14:27:24;4.00;;;2.53;;
34741;SDS011;20968;42.696;23.360;2023-03-20T14:29:52;21.23;;;11.10;;
34741;SDS011;20968;42.696;23.360;2023-03-20T14:34:52;5.78;;;2.70;;
34741;SDS011;20968;42.696;23.360;2023-03-20T14:37:29;4.15;;;2.33;;
34741;SDS011;20968;42.696;23.360;2023-03-20T14:42:50;3.95;;;1.65;;
34741;SDS011;20968;42.696;23.360;2023-03-20T14:48:03;2.97;;;1.70;;
34741;SDS011;20968;42.696;23.360;2023-03-20T14:53:18;14.52;;;5.32;;
34741;SDS011;20968;42.696;23.360;2023-03-20T15:03:49;4.32;;;1.45;;
34741;SDS011;20968;42.696;23.360;2023-03-20T15:06:18;6.03;;;1.98;;
34741;SDS011;20968;42.696;23.360;2023-03-20T15:08:56;3.88;;;1.77;;
34741;SDS011;20968;42.696;23.360;2023-03-20T15:11:24;4.22;;;2.97;;
34741;SDS011;20968;42.696;23.360;2023-03-20T15:13:51;6.00;;;3.90;;
34741;SDS011;20968;42.696;23.360;2023-03-20T15:16:24;4.35;;;2.60;;
34741;SDS011;20968;42.696;23.360;2023-03-20T15:18:55;4.68;;;3.22;;
34741;SDS011;20968;42.696;23.360;2023-03-20T15:21:37;4.05;;;3.00;;
34741;SDS011;20968;42.696;23.360;2023-03-20T15:24:05;4.38;;;2.55;;
34741;SDS011;20968;42.696;23.360;2023-03-20T15:26:31;3.65;;;2.60;;
34741;SDS011;20968;42.696;23.360;2023-03-20T15:29:06;4.25;;;2.50;;
34741;SDS011;20968;42.696;23.360;2023-03-20T15:31:37;8.23;;;2.95;;
34741;SDS011;20968;42.696;23.360;2023-03-20T15:34:20;2.95;;;2.17;;
34741;SDS011;20968;42.696;23.360;2023-03-20T15:36:47;5.50;;;2.45;;
34741;SDS011;20968;42.696;23.360;2023-03-20T15:39:16;6.45;;;2.53;;
34741;SDS011;20968;42.696;23.360;2023-03-20T15:41:49;4.45;;;3.08;;
34741;SDS011;20968;42.696;23.360;2023-03-20T15:46:57;4.30;;;2.72;;
34741;SDS011;20968;42.696;23.360;2023-03-20T15:49:25;8.45;;;3.85;;
34741;SDS011;20968;42.696;23.360;2023-03-20T15:51:55;7.45;;;3.45;;
34741;SDS011;20968;42.696;23.360;2023-03-20T15:54:23;5.63;;;4.00;;
34741;SDS011;20968;42.696;23.360;2023-03-20T15:56:50;7.88;;;4.07;;
34741;SDS011;20968;42.696;23.360;2023-03-20T15:59:18;7.50;;;4.22;;
34741;SDS011;20968;42.696;23.360;2023-03-20T16:01:48;8.13;;;5.03;;
34741;SDS011;20968;42.696;23.360;2023-03-20T16:04:18;11.60;;;3.50;;
34741;SDS011;20968;42.696;23.360;2023-03-20T16:06:52;12.05;;;4.05;;
34741;SDS011;20968;42.696;23.360;2023-03-20T16:09:24;12.27;;;5.07;;
34741;SDS011;20968;42.696;23.360;2023-03-20T16:11:55;22.73;;;9.07;;
34741;SDS011;20968;42.696;23.360;2023-03-20T16:14:21;21.50;;;9.13;;
34741;SDS011;20968;42.696;23.360;2023-03-20T16:16:50;15.73;;;7.60;;
34741;SDS011;20968;42.696;23.360;2023-03-20T16:19:17;14.32;;;6.30;;
34741;SDS011;20968;42.696;23.360;2023-03-20T16:21:46;12.23;;;6.85;;
34741;SDS011;20968;42.696;23.360;2023-03-20T16:24:16;15.10;;;6.47;;
34741;SDS011;20968;42.696;23.360;2023-03-20T16:26:47;18.92;;;8.07;;
34741;SDS011;20968;42.696;23.360;2023-03-20T16:29:15;23.50;;;12.43;;
34741;SDS011;20968;42.696;23.360;2023-03-20T16:31:44;23.73;;;10.45;;
34741;SDS011;20968;42.696;23.360;2023-03-20T16:34:17;20.35;;;10.52;;
34741;SDS011;20968;42.696;23.360;2023-03-20T16:36:51;22.40;;;10.43;;
34741;SDS011;20968;42.696;23.360;2023-03-20T16:39:19;16.88;;;9.35;;
34741;SDS011;20968;42.696;23.360;2023-03-20T16:41:51;26.92;;;13.68;;
34741;SDS011;20968;42.696;23.360;2023-03-20T16:44:46;20.85;;;11.52;;
34741;SDS011;20968;42.696;23.360;2023-03-20T16:47:22;14.68;;;9.35;;
34741;SDS011;20968;42.696;23.360;2023-03-20T16:52:44;15.32;;;7.15;;
34741;SDS011;20968;42.696;23.360;2023-03-20T16:55:16;12.65;;;6.20;;
34741;SDS011;20968;42.696;23.360;2023-03-20T16:57:47;16.50;;;5.93;;
34741;SDS011;20968;42.696;23.360;2023-03-20T17:00:25;14.52;;;7.75;;
34741;SDS011;20968;42.696;23.360;2023-03-20T17:03:15;22.52;;;8.65;;
34741;SDS011;20968;42.696;23.360;2023-03-20T17:05:51;20.25;;;8.93;;
34741;SDS011;20968;42.696;23.360;2023-03-20T17:08:39;20.95;;;9.10;;
34741;SDS011;20968;42.696;23.360;2023-03-20T17:11:10;29.60;;;12.95;;
34741;SDS011;20968;42.696;23.360;2023-03-20T17:13:38;41.67;;;19.17;;
34741;SDS011;20968;42.696;23.360;2023-03-20T17:16:05;40.05;;;18.27;;
34741;SDS011;20968;42.696;23.360;2023-03-20T17:18:31;35.97;;;16.73;;